createdAt,value
2018-11-27T00:01:46.008Z,111.73
2018-11-27T00:04:15.748Z,108.63
2018-11-27T00:06:45.749Z,150.17
2018-11-27T00:09:15.582Z,156.17
2018-11-27T00:11:45.397Z,121.60
2018-11-27T00:14:15.233Z,111.00
2018-11-27T00:16:44.971Z,123.50
2018-11-27T00:19:14.774Z,112.10
2018-11-27T00:21:44.615Z,129.60
2018-11-27T00:24:14.417Z,118.03
2018-11-27T00:26:44.771Z,107.80
2018-11-27T00:29:14.615Z,119.90
2018-11-27T00:31:44.435Z,106.17
2018-11-27T00:34:14.233Z,114.43
2018-11-27T00:36:44.087Z,104.93
2018-11-27T00:39:13.990Z,108.53
2018-11-27T00:41:43.805Z,110.67
2018-11-27T00:44:13.616Z,105.30
2018-11-27T00:46:43.358Z,104.87
2018-11-27T00:49:13.014Z,107.33
2018-11-27T00:51:42.948Z,112.60
2018-11-27T00:54:12.885Z,112.63
2018-11-27T00:56:42.779Z,103.67
2018-11-27T00:59:12.529Z,105.97
2018-11-27T01:01:42.313Z,107.57
2018-11-27T01:04:12.080Z,101.40
2018-11-27T01:06:41.767Z,102.83
2018-11-27T01:09:11.437Z,100.73
2018-11-27T01:11:41.196Z,105.80
2018-11-27T01:14:10.970Z,102.23
2018-11-27T01:16:40.741Z,104.57
2018-11-27T01:19:10.528Z,100.33
2018-11-27T01:21:40.291Z,97.40
2018-11-27T01:24:10.045Z,96.20
2018-11-27T01:26:39.755Z,97.43
2018-11-27T01:29:09.389Z,95.20
2018-11-27T01:31:39.140Z,92.77
2018-11-27T01:34:08.938Z,95.90
2018-11-27T01:36:38.794Z,93.87
2018-11-27T01:39:08.873Z,87.30
2018-11-27T01:41:38.608Z,88.17
2018-11-27T01:44:08.343Z,93.17
2018-11-27T01:46:38.214Z,92.93
2018-11-27T01:49:08.141Z,87.73
2018-11-27T01:51:37.974Z,90.03
2018-11-27T01:54:07.794Z,90.40
2018-11-27T01:56:37.629Z,86.87
2018-11-27T01:59:07.437Z,85.27
2018-11-27T02:01:37.208Z,89.43
2018-11-27T02:04:07.320Z,84.47
2018-11-27T02:06:37.128Z,83.57
2018-11-27T02:09:08.890Z,81.23
2018-11-27T02:11:38.585Z,83.50
2018-11-27T02:14:08.398Z,80.20
2018-11-27T02:16:38.132Z,82.60
2018-11-27T02:19:07.768Z,77.47
2018-11-27T02:21:37.425Z,75.37
2018-11-27T02:24:07.929Z,76.73
2018-11-27T02:26:37.691Z,77.30
2018-11-27T02:29:07.340Z,74.70
2018-11-27T02:31:37.144Z,74.30
2018-11-27T02:34:07.226Z,73.60
2018-11-27T02:36:36.887Z,74.27
2018-11-27T02:39:07.401Z,71.23
2018-11-27T02:41:37.124Z,72.77
2018-11-27T02:44:07.008Z,70.53
2018-11-27T02:46:36.844Z,69.53
2018-11-27T02:49:06.802Z,68.70
2018-11-27T02:51:36.509Z,67.93
2018-11-27T02:54:06.305Z,66.70
2018-11-27T02:56:36.072Z,66.33
2018-11-27T02:59:05.877Z,66.73
2018-11-27T03:01:36.177Z,64.50
2018-11-27T03:04:06.080Z,64.70
2018-11-27T03:06:36.001Z,65.30
2018-11-27T03:09:09.026Z,62.97
2018-11-27T03:11:38.893Z,62.67
2018-11-27T03:14:08.903Z,60.53
2018-11-27T03:16:38.578Z,62.50
2018-11-27T03:19:08.281Z,60.60
2018-11-27T03:21:38.026Z,59.00
2018-11-27T03:24:07.740Z,58.97
2018-11-27T03:26:37.377Z,59.70
2018-11-27T03:29:07.872Z,56.37
2018-11-27T03:31:37.726Z,57.60
2018-11-27T03:34:07.687Z,56.73
2018-11-27T03:36:37.377Z,55.73
2018-11-27T03:39:10.313Z,54.47
2018-11-27T03:41:40.069Z,55.80
2018-11-27T03:44:09.853Z,54.87
2018-11-27T03:46:39.601Z,53.20
2018-11-27T03:49:09.437Z,54.37
2018-11-27T03:51:39.238Z,53.37
2018-11-27T03:54:09.086Z,52.73
2018-11-27T03:56:38.894Z,51.03
2018-11-27T03:59:08.650Z,52.37
2018-11-27T04:01:38.480Z,48.17
2018-11-27T04:04:10.142Z,52.97
2018-11-27T04:06:38.133Z,49.27
2018-11-27T04:09:09.841Z,50.17
2018-11-27T04:11:39.588Z,48.77
2018-11-27T04:14:09.385Z,51.67
2018-11-27T04:16:39.143Z,48.83
2018-11-27T04:19:08.835Z,48.77
2018-11-27T04:21:38.541Z,46.17
2018-11-27T04:24:08.455Z,50.20
2018-11-27T04:26:38.282Z,49.30
2018-11-27T04:29:08.105Z,50.20
2018-11-27T04:31:37.901Z,49.40
2018-11-27T04:34:07.749Z,46.37
2018-11-27T04:36:37.486Z,45.40
2018-11-27T04:39:09.371Z,45.83
2018-11-27T04:41:39.114Z,44.83
2018-11-27T04:44:08.909Z,44.93
2018-11-27T04:46:38.716Z,46.07
2018-11-27T04:49:08.662Z,43.17
2018-11-27T04:51:38.425Z,44.23
2018-11-27T04:54:08.216Z,43.17
2018-11-27T04:56:38.042Z,46.30
2018-11-27T04:59:07.865Z,40.93
2018-11-27T05:01:37.802Z,44.50
2018-11-27T05:04:07.713Z,44.00
2018-11-27T05:06:37.953Z,42.70
2018-11-27T05:09:10.725Z,41.37
2018-11-27T05:11:40.564Z,41.03
2018-11-27T05:14:10.356Z,36.00
2018-11-27T05:16:40.162Z,39.00
2018-11-27T05:19:09.841Z,37.87
2018-11-27T05:21:39.709Z,40.13
2018-11-27T05:24:09.464Z,39.33
2018-11-27T05:26:39.253Z,37.17
2018-11-27T05:29:08.984Z,37.77
2018-11-27T05:31:38.761Z,37.03
2018-11-27T05:34:08.566Z,36.47
2018-11-27T05:36:39.329Z,37.20
2018-11-27T05:39:09.897Z,37.10
2018-11-27T05:41:39.704Z,37.80
2018-11-27T05:44:09.966Z,34.10
2018-11-27T05:46:39.716Z,35.43
2018-11-27T05:49:09.385Z,36.90
2018-11-27T05:51:39.137Z,34.87
2018-11-27T05:54:08.934Z,35.60
2018-11-27T05:56:38.641Z,34.77
2018-11-27T05:59:08.353Z,32.57
2018-11-27T06:01:38.064Z,32.40
2018-11-27T06:04:07.775Z,33.23
2018-11-27T06:06:37.547Z,32.03
2018-11-27T06:09:10.316Z,32.53
2018-11-27T06:11:40.343Z,32.50
2018-11-27T06:14:10.126Z,31.47
2018-11-27T06:16:39.901Z,33.13
2018-11-27T06:19:09.709Z,31.80
2018-11-27T06:21:39.416Z,31.03
2018-11-27T06:24:09.273Z,31.07
2018-11-27T06:26:39.010Z,29.53
2018-11-27T06:29:08.698Z,30.00
2018-11-27T06:31:38.469Z,30.07
2018-11-27T06:34:08.285Z,28.50
2018-11-27T06:36:38.077Z,27.70
2018-11-27T06:39:09.450Z,26.90
2018-11-27T06:41:39.276Z,29.83
2018-11-27T06:44:09.107Z,32.70
2018-11-27T06:46:38.889Z,42.43
2018-11-27T06:49:08.622Z,40.20
2018-11-27T06:51:38.412Z,46.57
2018-11-27T06:54:08.412Z,57.43
2018-11-27T06:56:38.208Z,157.70
2018-11-27T06:59:08.096Z,87.70
2018-11-27T07:01:37.897Z,67.13
2018-11-27T07:04:07.696Z,76.77
2018-11-27T07:06:37.481Z,73.20
2018-11-27T07:09:09.717Z,78.13
2018-11-27T07:11:39.464Z,71.57
2018-11-27T07:14:09.301Z,73.87
2018-11-27T07:16:39.105Z,73.53
2018-11-27T07:19:09.012Z,108.07
2018-11-27T07:21:38.745Z,105.90
2018-11-27T07:24:08.481Z,95.03
2018-11-27T07:26:38.252Z,86.03
2018-11-27T07:29:08.613Z,81.47
2018-11-27T07:31:38.348Z,75.10
2018-11-27T07:34:08.133Z,72.50
2018-11-27T07:36:37.844Z,64.77
2018-11-27T07:39:07.941Z,64.00
2018-11-27T07:41:37.728Z,66.07
2018-11-27T07:44:07.540Z,61.27
2018-11-27T07:46:37.250Z,62.20
2018-11-27T07:49:07.262Z,61.10
2018-11-27T07:51:37.081Z,56.43
2018-11-27T07:54:06.907Z,55.73
2018-11-27T07:56:36.697Z,55.40
2018-11-27T07:59:06.466Z,53.00
2018-11-27T08:01:36.284Z,53.77
2018-11-27T08:04:06.402Z,50.40
2018-11-27T08:06:36.245Z,51.57
2018-11-27T08:09:08.923Z,49.53
2018-11-27T08:11:38.697Z,45.80
2018-11-27T08:14:08.481Z,46.60
2018-11-27T08:16:38.225Z,44.10
2018-11-27T08:19:07.925Z,41.47
2018-11-27T08:21:37.727Z,39.50
2018-11-27T08:24:07.517Z,36.03
2018-11-27T08:26:37.293Z,44.27
2018-11-27T08:29:07.069Z,49.30
2018-11-27T08:31:36.772Z,48.30
2018-11-27T08:34:06.577Z,94.60
2018-11-27T08:36:36.365Z,52.17
2018-11-27T08:39:09.111Z,123.57
2018-11-27T08:41:40.450Z,79.67
2018-11-27T08:44:08.693Z,86.07
2018-11-27T08:46:38.477Z,79.17
2018-11-27T08:49:08.206Z,77.10
2018-11-27T08:51:38.304Z,76.90
2018-11-27T08:54:08.269Z,80.47
2018-11-27T08:56:38.062Z,77.87
2018-11-27T08:59:07.841Z,76.47
2018-11-27T09:01:37.549Z,70.33
2018-11-27T09:04:07.257Z,67.90
2018-11-27T09:06:36.977Z,70.87
2018-11-27T09:09:10.007Z,69.30
2018-11-27T09:11:39.793Z,71.23
2018-11-27T09:14:09.510Z,69.63
2018-11-27T09:16:39.337Z,70.67
2018-11-27T09:19:09.236Z,66.73
2018-11-27T09:21:39.043Z,69.13
2018-11-27T09:24:08.748Z,70.87
2018-11-27T09:26:38.533Z,69.50
2018-11-27T09:29:08.296Z,67.97
2018-11-27T09:31:38.051Z,67.77
2018-11-27T09:34:07.791Z,64.70
2018-11-27T09:36:37.813Z,64.20
2018-11-27T09:39:09.997Z,65.77
2018-11-27T09:41:39.763Z,66.23
2018-11-27T09:44:09.638Z,63.27
2018-11-27T09:46:39.396Z,64.13
2018-11-27T09:49:09.319Z,61.90
2018-11-27T09:51:39.201Z,62.80
2018-11-27T09:54:08.913Z,60.57
2018-11-27T09:56:38.726Z,58.87
2018-11-27T09:59:08.437Z,63.33
2018-11-27T10:01:38.176Z,59.57
2018-11-27T10:04:07.961Z,59.47
2018-11-27T10:06:37.627Z,58.40
2018-11-27T10:09:09.079Z,58.17
2018-11-27T10:11:38.893Z,57.57
2018-11-27T10:14:08.633Z,57.53
2018-11-27T10:16:38.412Z,57.27
2018-11-27T10:19:08.118Z,57.13
2018-11-27T10:21:37.869Z,54.67
2018-11-27T10:24:08.003Z,53.97
2018-11-27T10:26:38.085Z,52.47
2018-11-27T10:29:07.845Z,51.87
2018-11-27T10:31:37.518Z,50.37
2018-11-27T10:34:07.454Z,46.90
2018-11-27T10:36:36.937Z,49.43
2018-11-27T10:39:08.495Z,52.87
2018-11-27T10:41:37.994Z,69.43
2018-11-27T10:44:07.493Z,58.03
2018-11-27T10:46:37.233Z,67.00
2018-11-27T10:49:07.103Z,73.47
2018-11-27T10:51:36.892Z,92.40
2018-11-27T10:54:07.288Z,89.73
2018-11-27T10:56:37.125Z,70.00
2018-11-27T10:59:06.911Z,109.60
2018-11-27T11:01:41.856Z,75.20
2018-11-27T11:04:11.583Z,80.00
2018-11-27T11:06:41.287Z,73.63
2018-11-27T11:09:11.269Z,79.00
2018-11-27T11:11:41.029Z,77.07
2018-11-27T11:14:10.789Z,72.73
2018-11-27T11:16:40.539Z,82.63
2018-11-27T11:19:10.308Z,78.07
2018-11-27T11:21:40.076Z,73.37
2018-11-27T11:24:09.896Z,66.40
2018-11-27T11:26:39.600Z,69.47
2018-11-27T11:29:09.332Z,67.87
2018-11-27T11:31:39.101Z,68.87
2018-11-27T11:34:08.856Z,61.33
2018-11-27T11:36:38.680Z,61.00
2018-11-27T11:39:10.533Z,58.10
2018-11-27T11:41:40.330Z,57.47
2018-11-27T11:44:10.390Z,59.33
2018-11-27T11:46:40.180Z,58.30
2018-11-27T11:49:09.988Z,56.73
2018-11-27T11:51:39.793Z,62.07
2018-11-27T11:54:09.568Z,60.03
2018-11-27T11:56:39.275Z,61.27
2018-11-27T11:59:09.001Z,60.43
2018-11-27T12:01:38.725Z,74.90
2018-11-27T12:04:08.515Z,65.27
2018-11-27T12:06:38.241Z,76.03
2018-11-27T12:09:09.465Z,72.83
2018-11-27T12:11:39.149Z,70.73
2018-11-27T12:14:08.936Z,69.63
2018-11-27T12:16:38.734Z,78.83
2018-11-27T12:19:08.528Z,81.93
2018-11-27T12:21:38.330Z,73.47
2018-11-27T12:24:08.052Z,73.90
2018-11-27T12:26:37.801Z,76.50
2018-11-27T12:29:07.551Z,75.80
2018-11-27T12:31:37.321Z,74.37
2018-11-27T12:34:07.137Z,71.83
2018-11-27T12:36:36.909Z,71.57
2018-11-27T12:39:08.644Z,70.10
2018-11-27T12:41:38.728Z,68.30
2018-11-27T12:44:08.732Z,65.40
2018-11-27T12:46:38.553Z,65.03
2018-11-27T12:49:08.726Z,66.70
2018-11-27T12:51:38.584Z,61.77
2018-11-27T12:54:08.499Z,61.03
2018-11-27T12:56:43.580Z,62.47
2018-11-27T12:59:08.085Z,63.30
2018-11-27T13:01:37.891Z,62.40
2018-11-27T13:04:07.637Z,64.73
2018-11-27T13:06:37.408Z,67.30
2018-11-27T13:09:10.330Z,62.50
2018-11-27T13:11:39.984Z,61.50
2018-11-27T13:14:09.785Z,60.87
2018-11-27T13:16:39.517Z,57.10
2018-11-27T13:19:09.299Z,59.57
2018-11-27T13:21:39.036Z,54.23
2018-11-27T13:24:08.807Z,53.90
2018-11-27T13:26:38.598Z,54.80
2018-11-27T13:29:08.371Z,54.27
2018-11-27T13:31:38.181Z,56.00
2018-11-27T13:34:10.848Z,57.80
2018-11-27T13:36:40.604Z,59.60
2018-11-27T13:39:21.367Z,59.00
2018-11-27T13:41:51.189Z,58.13
2018-11-27T13:44:20.854Z,60.07
2018-11-27T13:46:50.670Z,57.97
2018-11-27T13:49:20.420Z,60.30
2018-11-27T13:51:50.221Z,53.83
2018-11-27T13:54:19.989Z,55.73
2018-11-27T13:56:49.861Z,55.87
2018-11-27T13:59:19.687Z,54.20
2018-11-27T14:01:49.328Z,47.90
2018-11-27T14:04:19.105Z,53.87
2018-11-27T14:06:48.877Z,45.03
2018-11-27T14:09:18.659Z,52.67
2018-11-27T14:11:48.434Z,48.27
2018-11-27T14:14:18.624Z,48.13
2018-11-27T14:16:48.405Z,46.30
2018-11-27T14:19:18.311Z,44.07
2018-11-27T14:21:48.049Z,45.50
2018-11-27T14:24:17.751Z,43.23
2018-11-27T14:26:47.501Z,43.10
2018-11-27T14:29:17.396Z,42.77
2018-11-27T14:31:47.102Z,38.63
2018-11-27T14:34:16.813Z,37.53
2018-11-27T14:36:53.683Z,40.87
2018-11-27T14:39:24.629Z,48.03
2018-11-27T14:41:54.489Z,40.83
2018-11-27T14:44:24.476Z,53.17
2018-11-27T14:46:54.581Z,67.17
2018-11-27T14:49:24.823Z,95.27
2018-11-27T14:51:54.524Z,65.80
2018-11-27T14:54:24.285Z,63.27
2018-11-27T14:56:54.076Z,46.93
2018-11-27T14:59:23.745Z,45.57
2018-11-27T15:01:53.542Z,38.27
2018-11-27T15:04:23.393Z,35.57
2018-11-27T15:06:53.393Z,29.97
2018-11-27T15:09:23.058Z,33.97
2018-11-27T15:11:52.776Z,28.80
2018-11-27T15:14:25.318Z,38.63
2018-11-27T15:16:52.186Z,39.73
2018-11-27T15:19:22.046Z,36.50
2018-11-27T15:21:51.764Z,39.53
2018-11-27T15:24:21.584Z,33.53
2018-11-27T15:26:51.401Z,33.00
2018-11-27T15:29:21.181Z,34.63
2018-11-27T15:31:50.935Z,33.70
2018-11-27T15:34:20.661Z,27.10
2018-11-27T15:36:50.404Z,25.57
2018-11-27T15:39:20.100Z,22.83
2018-11-27T15:41:49.903Z,26.90
2018-11-27T15:44:19.739Z,32.67
2018-11-27T15:46:50.172Z,33.03
2018-11-27T15:49:20.116Z,24.83
2018-11-27T15:51:49.775Z,28.30
2018-11-27T15:54:19.468Z,23.43
2018-11-27T15:56:49.101Z,28.10
2018-11-27T15:59:18.934Z,36.87
2018-11-27T16:01:49.466Z,36.57
2018-11-27T16:04:19.246Z,28.13
2018-11-27T16:06:48.953Z,29.33
2018-11-27T16:09:18.776Z,28.23
2018-11-27T16:11:48.482Z,26.97
2018-11-27T16:14:18.334Z,28.03
2018-11-27T16:16:48.098Z,65.17
2018-11-27T16:19:18.102Z,48.17
2018-11-27T16:21:47.898Z,44.53
2018-11-27T16:24:17.608Z,72.50
2018-11-27T16:26:47.611Z,78.67
2018-11-27T16:29:18.373Z,100.23
2018-11-27T16:31:48.339Z,58.53
2018-11-27T16:34:18.156Z,90.77
2018-11-27T16:36:47.970Z,80.03
2018-11-27T16:39:17.748Z,112.13
2018-11-27T16:41:47.576Z,90.67
2018-11-27T16:44:17.329Z,81.40
2018-11-27T16:46:47.094Z,67.10
2018-11-27T16:49:16.850Z,81.33
2018-11-27T16:51:46.581Z,80.27
2018-11-27T16:54:16.377Z,75.10
2018-11-27T16:56:46.209Z,71.47
2018-11-27T16:59:15.997Z,75.70
2018-11-27T17:01:45.965Z,82.67
2018-11-27T17:04:15.785Z,76.10
2018-11-27T17:06:45.606Z,78.77
2018-11-27T17:09:15.369Z,76.33
2018-11-27T17:11:45.164Z,73.13
2018-11-27T17:14:14.869Z,74.67
2018-11-27T17:16:44.577Z,74.13
2018-11-27T17:19:14.301Z,74.53
2018-11-27T17:21:44.164Z,73.17
2018-11-27T17:24:13.933Z,66.77
2018-11-27T17:26:43.588Z,70.87
2018-11-27T17:29:13.304Z,66.73
2018-11-27T17:31:42.999Z,68.13
2018-11-27T17:34:14.686Z,66.20
2018-11-27T17:36:44.429Z,69.80
2018-11-27T17:39:14.328Z,67.10
2018-11-27T17:41:44.143Z,66.33
2018-11-27T17:44:16.297Z,65.10
2018-11-27T17:46:46.067Z,67.00
2018-11-27T17:49:15.882Z,64.90
2018-11-27T17:51:45.673Z,63.47
2018-11-27T17:54:15.501Z,64.27
2018-11-27T17:56:45.304Z,62.00
2018-11-27T17:59:15.088Z,61.77
2018-11-27T18:01:44.937Z,60.87
2018-11-27T18:04:14.685Z,60.43
2018-11-27T18:06:44.453Z,60.67
2018-11-27T18:09:14.169Z,60.67
2018-11-27T18:11:43.975Z,61.30
2018-11-27T18:14:13.759Z,58.90
2018-11-27T18:16:43.511Z,59.10
2018-11-27T18:19:13.273Z,57.27
2018-11-27T18:21:42.902Z,56.73
2018-11-27T18:24:12.660Z,59.87
2018-11-27T18:26:42.432Z,56.93
2018-11-27T18:29:12.181Z,57.47
2018-11-27T18:31:41.956Z,54.83
2018-11-27T18:34:11.710Z,55.87
2018-11-27T18:36:41.437Z,56.83
2018-11-27T18:39:11.289Z,53.80
2018-11-27T18:41:41.110Z,55.23
2018-11-27T18:44:11.297Z,55.00
2018-11-27T18:46:41.041Z,53.10
2018-11-27T18:49:10.812Z,53.23
2018-11-27T18:51:40.666Z,52.03
2018-11-27T18:54:10.429Z,49.43
2018-11-27T18:56:40.129Z,51.87
2018-11-27T18:59:09.958Z,52.00
2018-11-27T19:01:39.737Z,52.10
2018-11-27T19:04:09.463Z,50.20
2018-11-27T19:06:39.261Z,48.53
2018-11-27T19:09:10.157Z,49.83
2018-11-27T19:11:39.944Z,48.20
2018-11-27T19:14:09.778Z,48.83
2018-11-27T19:16:39.561Z,47.70
2018-11-27T19:19:09.333Z,48.07
2018-11-27T19:21:39.058Z,47.23
2018-11-27T19:24:08.685Z,44.73
2018-11-27T19:26:38.543Z,47.90
2018-11-27T19:29:08.359Z,46.87
2018-11-27T19:31:38.821Z,48.73
2018-11-27T19:34:08.569Z,54.97
2018-11-27T19:36:38.315Z,57.70
2018-11-27T19:39:09.709Z,49.70
2018-11-27T19:41:40.069Z,55.17
2018-11-27T19:44:10.209Z,60.97
2018-11-27T19:46:40.029Z,64.33
2018-11-27T19:49:09.998Z,61.53
2018-11-27T19:51:40.739Z,61.93
2018-11-27T19:54:10.535Z,69.77
2018-11-27T19:56:40.425Z,65.20
2018-11-27T19:59:10.149Z,96.03
2018-11-27T20:01:40.122Z,93.43
2018-11-27T20:04:09.889Z,88.87
2018-11-27T20:06:39.834Z,105.33
2018-11-27T20:09:10.104Z,120.03
2018-11-27T20:11:40.036Z,102.67
2018-11-27T20:14:09.792Z,101.30
2018-11-27T20:16:39.581Z,97.93
2018-11-27T20:19:09.578Z,103.33
2018-11-27T20:21:39.370Z,90.47
2018-11-27T20:24:09.241Z,92.63
2018-11-27T20:26:39.243Z,89.40
2018-11-27T20:29:09.203Z,182.73
2018-11-27T20:31:39.139Z,159.43
2018-11-27T20:34:09.081Z,148.63
2018-11-27T20:36:39.296Z,142.70
2018-11-27T20:39:10.442Z,125.43
2018-11-27T20:41:41.670Z,120.37
2018-11-27T20:44:11.571Z,107.67
2018-11-27T20:46:41.508Z,105.23
2018-11-27T20:49:11.423Z,100.13
2018-11-27T20:51:41.217Z,96.70
2018-11-27T20:54:11.118Z,91.60
2018-11-27T20:56:41.898Z,87.67
2018-11-27T20:59:11.235Z,87.07
2018-11-27T21:01:41.353Z,83.73
2018-11-27T21:04:11.910Z,82.53
2018-11-27T21:06:41.799Z,76.80
2018-11-27T21:09:13.589Z,77.10
2018-11-27T21:11:45.380Z,74.60
2018-11-27T21:14:15.294Z,74.57
2018-11-27T21:16:45.117Z,70.57
2018-11-27T21:19:15.049Z,71.53
2018-11-27T21:21:44.753Z,64.23
2018-11-27T21:24:14.724Z,64.37
2018-11-27T21:26:44.659Z,120.90
2018-11-27T21:29:14.501Z,79.50
2018-11-27T21:31:44.337Z,88.00
2018-11-27T21:34:14.289Z,295.20
2018-11-27T21:36:44.093Z,129.37
2018-11-27T21:39:13.881Z,114.93
2018-11-27T21:41:43.563Z,115.43
2018-11-27T21:44:13.409Z,108.60
2018-11-27T21:46:43.257Z,108.40
2018-11-27T21:49:13.173Z,106.17
2018-11-27T21:51:43.354Z,102.80
2018-11-27T21:54:13.103Z,95.97
2018-11-27T21:56:42.954Z,93.07
2018-11-27T21:59:12.922Z,90.90
2018-11-27T22:01:42.658Z,92.10
2018-11-27T22:04:12.437Z,88.73
2018-11-27T22:06:42.220Z,87.80
2018-11-27T22:09:11.917Z,118.00
2018-11-27T22:11:41.665Z,113.37
2018-11-27T22:14:11.608Z,109.70
2018-11-27T22:16:41.447Z,111.40
2018-11-27T22:19:10.945Z,110.97
2018-11-27T22:21:40.473Z,102.97
2018-11-27T22:24:09.965Z,111.67
2018-11-27T22:26:39.485Z,108.40
2018-11-27T22:29:09.173Z,108.83
2018-11-27T22:31:38.992Z,109.77
2018-11-27T22:34:08.859Z,105.33
2018-11-27T22:36:38.677Z,107.77
2018-11-27T22:39:09.877Z,108.47
2018-11-27T22:41:39.732Z,115.43
2018-11-27T22:44:09.539Z,120.60
2018-11-27T22:46:39.413Z,118.83
2018-11-27T22:49:09.021Z,89.50
2018-11-27T22:51:38.754Z,83.80
2018-11-27T22:54:08.614Z,75.33
2018-11-27T22:56:38.374Z,89.83
2018-11-27T22:59:08.228Z,85.43
2018-11-27T23:01:38.916Z,88.67
2018-11-27T23:04:09.249Z,85.97
2018-11-27T23:06:39.091Z,86.57
2018-11-27T23:09:09.598Z,81.70
2018-11-27T23:11:39.425Z,88.60
2018-11-27T23:14:09.254Z,92.87
2018-11-27T23:16:39.014Z,84.33
2018-11-27T23:19:08.793Z,87.87
2018-11-27T23:21:38.573Z,84.10
2018-11-27T23:24:08.285Z,87.80
2018-11-27T23:26:38.197Z,85.90
2018-11-27T23:29:08.281Z,86.80
2018-11-27T23:31:38.055Z,82.20
2018-11-27T23:34:07.784Z,82.67
2018-11-27T23:36:37.568Z,87.47
2018-11-27T23:39:08.500Z,81.37
2018-11-27T23:41:38.292Z,85.40
2018-11-27T23:44:08.084Z,84.80
2018-11-27T23:46:37.844Z,81.10
2018-11-27T23:49:07.554Z,81.90
2018-11-27T23:51:37.279Z,77.97
2018-11-27T23:54:07.716Z,79.80
2018-11-27T23:56:37.970Z,80.77
2018-11-27T23:59:07.746Z,80.27
